Time;durP1;ratioP1;P1;durP2;ratioP2;P2;SDS_P1;SDS_P2;PMS_P1;PMS_P2;Temp;Humidity;BMP_temperature;BMP_pressure;BME280_temperature;BME280_humidity;BME280_pressure;Samples;Min_cycle;Max_cycle;Signal;HPM_P1;HPM_P2
2023/06/01 00:02:23;;;;;;;15.32;9.52;;;;;;;12.03;87.51;102484.16;4989456;28;20034;-71
2023/06/01 00:04:49;;;;;;;17.85;9.20;;;;;;;12.03;87.26;102486.78;4996376;28;20057;-71
2023/06/01 00:07:16;;;;;;;12.23;9.00;;;;;;;12.01;87.85;102486.81;4995992;28;20333;-71
2023/06/01 00:09:41;;;;;;;17.85;10.48;;;;;;;11.96;87.81;102483.41;4997721;28;20065;-71
2023/06/01 00:12:07;;;;;;;14.85;9.02;;;;;;;11.93;87.41;102477.34;4995421;28;20042;-71
2023/06/01 00:14:33;;;;;;;20.65;9.90;;;;;;;11.95;87.68;102475.56;4996810;28;20054;-71
2023/06/01 00:16:58;;;;;;;15.27;8.15;;;;;;;11.90;87.79;102479.13;4993743;28;20404;-71
2023/06/01 00:19:25;;;;;;;13.98;8.60;;;;;;;11.88;87.76;102477.44;4997273;28;20064;-71
2023/06/01 00:21:53;;;;;;;10.75;7.82;;;;;;;11.83;87.44;102472.25;4992692;28;20045;-71
2023/06/01 00:24:19;;;;;;;11.05;7.18;;;;;;;11.86;87.51;102472.19;4997084;28;20109;-71
2023/06/01 00:26:45;;;;;;;12.60;7.30;;;;;;;11.87;87.14;102479.16;4991268;28;20026;-71
2023/06/01 00:29:10;;;;;;;11.95;7.18;;;;;;;11.86;86.72;102476.56;4996714;28;20080;-71
2023/06/01 00:31:35;;;;;;;9.85;7.10;;;;;;;11.84;87.05;102475.72;4993937;28;20034;-71
2023/06/01 00:34:01;;;;;;;15.07;7.88;;;;;;;11.93;87.23;102472.09;4997192;28;20104;-71
2023/06/01 00:36:26;;;;;;;13.48;7.60;;;;;;;11.94;87.31;102465.97;4988883;28;20042;-71
2023/06/01 00:38:52;;;;;;;11.63;6.85;;;;;;;11.90;86.66;102465.16;4996252;28;20210;-71
2023/06/01 00:41:17;;;;;;;12.90;7.15;;;;;;;11.83;87.26;102469.63;4994138;28;20089;-71
2023/06/01 00:43:42;;;;;;;12.38;6.80;;;;;;;11.81;87.43;102473.19;4996457;28;20189;-71
2023/06/01 00:46:09;;;;;;;10.25;6.72;;;;;;;11.85;86.98;102467.84;4989533;28;20049;-71
2023/06/01 00:48:35;;;;;;;7.40;6.13;;;;;;;11.90;87.24;102467.78;4994733;28;20333;-71
2023/06/01 00:51:01;;;;;;;11.95;6.65;;;;;;;11.87;86.85;102468.66;4976528;28;20058;-71
2023/06/01 00:53:27;;;;;;;11.63;6.78;;;;;;;11.80;86.87;102460.94;4994007;28;20046;-71
2023/06/01 00:55:52;;;;;;;9.68;6.68;;;;;;;11.82;87.08;102464.41;4996229;28;20044;-71
2023/06/01 00:58:18;;;;;;;12.88;5.88;;;;;;;11.88;86.60;102469.53;4993984;28;20312;-71
2023/06/01 01:04:05;;;;;;;8.73;5.88;;;;;;;11.84;87.20;102473.09;4921972;28;20308;-71
2023/06/01 01:06:45;;;;;;;10.85;6.43;;;;;;;11.91;87.04;102474.75;4995189;28;20038;-71
2023/06/01 01:09:10;;;;;;;12.80;6.45;;;;;;;11.79;87.02;102482.81;4995910;28;20052;-71
2023/06/01 01:11:39;;;;;;;10.65;6.22;;;;;;;11.72;87.44;102476.84;4978306;28;20273;-71
2023/06/01 01:14:39;;;;;;;12.98;6.30;;;;;;;11.74;87.08;102472.44;4983275;28;20052;-71
2023/06/01 01:17:38;;;;;;;6.72;5.30;;;;;;;11.79;87.65;102469.69;4965805;28;20073;-71
2023/06/01 01:20:15;;;;;;;16.33;6.93;;;;;;;11.73;87.57;102470.69;4987334;28;20057;-71
2023/06/01 01:22:43;;;;;;;9.63;6.25;;;;;;;11.81;87.47;102466.16;4989945;28;20233;-71
2023/06/01 01:25:24;;;;;;;8.83;5.87;;;;;;;11.80;87.64;102461.81;4993897;28;20104;-71
2023/06/01 01:28:11;;;;;;;9.27;5.65;;;;;;;11.85;86.96;102461.72;4985126;28;20293;-71
2023/06/01 01:30:38;;;;;;;10.00;5.60;;;;;;;11.85;86.60;102475.72;4996575;28;20050;-71
2023/06/01 01:33:04;;;;;;;13.57;6.30;;;;;;;11.81;86.45;102462.69;4989662;28;20046;-71
2023/06/01 01:35:30;;;;;;;7.53;6.18;;;;;;;11.79;86.42;102472.31;4997035;28;20277;-71
2023/06/01 01:37:56;;;;;;;9.18;5.32;;;;;;;11.85;86.55;102459.97;4994664;28;20361;-71
2023/06/01 01:40:21;;;;;;;11.32;6.30;;;;;;;11.82;86.74;102469.66;4996710;28;20046;-71
2023/06/01 01:42:48;;;;;;;15.63;7.95;;;;;;;11.76;86.43;102465.38;4989147;28;20053;-71
2023/06/01 01:45:15;;;;;;;9.05;6.30;;;;;;;11.79;86.86;102465.34;4997048;28;20044;-71
2023/06/01 01:47:49;;;;;;;7.57;6.00;;;;;;;11.81;86.87;102479.28;4992510;28;20290;-71
2023/06/01 01:50:21;;;;;;;10.75;7.00;;;;;;;11.81;86.83;102467.94;4991342;28;20441;-71
2023/06/01 01:52:48;;;;;;;10.23;6.45;;;;;;;11.81;86.40;102460.91;4988019;28;20034;-71
2023/06/01 01:55:15;;;;;;;7.78;6.07;;;;;;;11.83;86.05;102466.16;5000565;28;20050;-71
2023/06/01 01:57:41;;;;;;;9.23;5.88;;;;;;;11.88;86.21;102467.78;4997004;28;20093;-71
2023/06/01 02:00:07;;;;;;;8.93;5.88;;;;;;;11.84;86.04;102463.50;4992195;28;20322;-71
2023/06/01 02:02:33;;;;;;;9.00;6.28;;;;;;;11.72;85.85;102468.97;4999326;28;20042;-71
2023/06/01 02:04:58;;;;;;;9.45;5.95;;;;;;;11.59;86.50;102457.84;4991605;28;20104;-71
2023/06/01 02:07:24;;;;;;;12.52;5.65;;;;;;;11.58;86.54;102456.09;4975588;28;20052;-71
2023/06/01 02:09:49;;;;;;;12.38;5.90;;;;;;;11.49;86.88;102466.78;4998587;28;20054;-71
2023/06/01 02:12:15;;;;;;;9.20;5.53;;;;;;;11.45;87.45;102455.47;5000226;28;20231;-71
2023/06/01 02:14:40;;;;;;;10.55;5.70;;;;;;;11.56;86.69;102459.66;4990235;28;20054;-72
2023/06/01 02:17:07;;;;;;;9.70;6.18;;;;;;;11.47;86.68;102453.69;5000197;28;20225;-71
2023/06/01 02:19:33;;;;;;;10.93;5.85;;;;;;;11.41;86.80;102450.34;4990370;28;20038;-71
2023/06/01 02:21:58;;;;;;;10.20;6.10;;;;;;;11.38;86.70;102453.00;5000025;28;20026;-71
2023/06/01 02:24:23;;;;;;;8.55;6.55;;;;;;;11.38;86.61;102451.25;4990138;28;20045;-71
2023/06/01 02:26:52;;;;;;;8.95;6.32;;;;;;;11.35;86.86;102453.94;4999525;28;20337;-71
2023/06/01 02:29:19;;;;;;;11.20;5.82;;;;;;;11.40;87.30;102448.59;4990385;28;20026;-71
2023/06/01 02:31:45;;;;;;;13.07;6.28;;;;;;;11.43;87.33;102459.03;4986679;28;20326;-71
2023/06/01 02:34:11;;;;;;;10.10;6.32;;;;;;;11.42;86.99;102452.03;4991700;28;20052;-71
2023/06/01 02:36:36;;;;;;;9.60;6.25;;;;;;;11.48;86.72;102452.81;4999131;28;20133;-71
2023/06/01 02:39:01;;;;;;;11.07;6.68;;;;;;;11.39;87.05;102447.75;4998632;28;20041;-71
2023/06/01 02:41:27;;;;;;;13.85;6.75;;;;;;;11.34;87.18;102453.06;4999663;28;20054;-71
2023/06/01 02:43:52;;;;;;;8.68;5.80;;;;;;;11.36;86.93;102444.31;4973800;28;20049;-71
2023/06/01 02:46:19;;;;;;;10.35;6.47;;;;;;;11.43;87.14;102451.16;4997594;28;20038;-71
2023/06/01 02:48:45;;;;;;;10.38;6.18;;;;;;;11.35;87.31;102440.81;4992932;28;20035;-71
2023/06/01 02:51:11;;;;;;;8.70;5.82;;;;;;;11.34;87.89;102441.69;4995286;28;20116;-71
2023/06/01 02:53:39;;;;;;;12.85;6.50;;;;;;;11.32;87.73;102438.25;4984291;28;20293;-71
2023/06/01 02:56:05;;;;;;;11.13;6.53;;;;;;;11.34;87.65;102439.09;4999048;28;20050;-71
2023/06/01 02:58:30;;;;;;;8.57;6.10;;;;;;;11.36;87.25;102437.28;4996776;28;20073;-71
2023/06/01 03:00:57;;;;;;;10.95;6.43;;;;;;;11.34;87.26;102437.31;4998800;28;20381;-71
2023/06/01 03:03:26;;;;;;;14.40;7.03;;;;;;;11.40;87.29;102441.56;4996330;28;20357;-71
2023/06/01 03:05:52;;;;;;;8.38;5.82;;;;;;;11.37;87.51;102446.00;4979849;28;20390;-71
2023/06/01 03:08:19;;;;;;;8.65;5.97;;;;;;;11.34;87.38;102434.69;4979386;28;20035;-71
2023/06/01 03:10:45;;;;;;;11.15;6.20;;;;;;;11.40;86.98;102443.34;4993181;28;20053;-71
2023/06/01 03:13:11;;;;;;;11.23;6.40;;;;;;;11.38;86.73;102443.38;4994980;28;20042;-71
2023/06/01 03:15:37;;;;;;;11.30;7.07;;;;;;;11.41;86.81;102443.31;4997204;28;20058;-71
2023/06/01 03:18:03;;;;;;;11.05;6.10;;;;;;;11.32;86.82;102440.88;4995231;28;20238;-71
2023/06/01 03:20:29;;;;;;;6.72;5.80;;;;;;;11.33;87.10;102450.44;4997530;28;20376;-71
2023/06/01 03:22:55;;;;;;;10.45;6.43;;;;;;;11.33;86.85;102464.44;4998515;28;20038;-71
2023/06/01 03:25:20;;;;;;;10.73;6.40;;;;;;;11.26;87.13;102447.09;4988469;28;20291;-71
2023/06/01 03:27:46;;;;;;;12.18;6.50;;;;;;;11.28;86.86;102442.69;4989923;28;20050;-71
2023/06/01 03:30:11;;;;;;;6.57;5.95;;;;;;;11.28;87.42;102454.94;4997677;28;20038;-71
2023/06/01 03:32:42;;;;;;;11.73;6.88;;;;;;;11.33;87.03;102447.81;4998731;28;20066;-71
2023/06/01 03:35:08;;;;;;;15.30;7.07;;;;;;;11.32;87.28;102446.97;4992335;28;20034;-71
2023/06/01 03:37:38;;;;;;;9.75;6.05;;;;;;;11.24;87.69;102450.63;4979069;28;20068;-71
2023/06/01 03:40:10;;;;;;;16.52;6.93;;;;;;;11.28;87.71;102452.31;4980245;28;20110;-71
2023/06/01 03:42:43;;;;;;;14.27;7.15;;;;;;;11.25;87.59;102450.59;4962610;28;20093;-71
2023/06/01 03:45:10;;;;;;;16.13;6.75;;;;;;;11.33;86.95;102455.69;4985494;28;20045;-71
2023/06/01 03:47:35;;;;;;;10.57;6.80;;;;;;;11.29;87.19;102456.66;4998021;28;20114;-71
2023/06/01 03:50:02;;;;;;;12.32;6.20;;;;;;;11.35;87.42;102467.06;4992780;28;20039;-71
2023/06/01 03:52:29;;;;;;;8.95;6.03;;;;;;;11.28;87.21;102462.81;4979126;28;20051;-71
2023/06/01 03:54:55;;;;;;;11.27;5.65;;;;;;;11.25;87.39;102458.47;4961429;28;20215;-71
2023/06/01 03:57:21;;;;;;;8.80;6.10;;;;;;;11.25;87.52;102457.59;4979217;28;20039;-71
2023/06/01 03:59:46;;;;;;;14.23;5.57;;;;;;;11.21;87.51;102446.31;4995781;28;20050;-71
2023/06/01 04:02:12;;;;;;;11.77;5.63;;;;;;;11.33;87.14;102448.72;4993287;28;20365;-71
2023/06/01 04:04:40;;;;;;;7.10;5.78;;;;;;;11.27;87.26;102446.19;4997745;28;20317;-71
2023/06/01 04:07:09;;;;;;;9.38;5.70;;;;;;;11.30;87.53;102447.91;4983143;28;20232;-71
2023/06/01 04:09:37;;;;;;;14.82;5.75;;;;;;;11.27;87.34;102451.44;4997237;28;20061;-71
2023/06/01 04:12:03;;;;;;;14.68;6.97;;;;;;;11.20;87.56;102449.81;4978289;28;20073;-71
2023/06/01 04:14:28;;;;;;;14.65;6.00;;;;;;;11.29;87.08;102448.78;4977804;28;20034;-71
2023/06/01 04:16:53;;;;;;;14.48;6.47;;;;;;;11.28;87.08;102442.69;4978831;28;20059;-71
2023/06/01 04:19:19;;;;;;;13.55;5.72;;;;;;;11.39;86.51;102450.34;4978793;28;20068;-71
2023/06/01 04:21:45;;;;;;;6.47;4.85;;;;;;;11.37;86.76;102446.91;4980539;28;20389;-71
2023/06/01 04:24:10;;;;;;;9.30;5.22;;;;;;;11.33;86.76;102447.81;4978183;28;20035;-71
2023/06/01 04:26:36;;;;;;;11.32;5.60;;;;;;;11.27;87.08;102456.69;4979600;28;20034;-71
2023/06/01 04:29:02;;;;;;;8.85;5.38;;;;;;;11.14;87.20;102450.78;4977732;28;20337;-71
2023/06/01 04:31:28;;;;;;;7.75;5.50;;;;;;;11.13;87.26;102462.19;4991357;28;20061;-71
2023/06/01 04:33:56;;;;;;;11.07;5.43;;;;;;;11.18;87.01;102454.22;4987665;28;20028;-71
2023/06/01 04:36:24;;;;;;;10.50;6.03;;;;;;;11.12;86.86;102455.19;4988199;28;20038;-71
2023/06/01 04:38:54;;;;;;;7.63;5.15;;;;;;;11.16;87.06;102455.16;4996232;28;20049;-71
2023/06/01 04:41:21;;;;;;;9.00;5.40;;;;;;;11.18;86.69;102455.97;4985769;28;20026;-71
2023/06/01 04:43:51;;;;;;;9.00;6.03;;;;;;;11.22;86.85;102458.50;4978112;28;20081;-71
2023/06/01 04:46:23;;;;;;;7.32;5.47;;;;;;;11.19;86.84;102461.22;4980549;28;20207;-71
2023/06/01 04:48:51;;;;;;;13.57;6.00;;;;;;;11.20;87.32;102465.53;4993866;28;20326;-71
2023/06/01 04:51:17;;;;;;;18.15;6.38;;;;;;;11.33;86.14;102458.31;4990370;28;20061;-71
2023/06/01 04:53:43;;;;;;;9.73;5.93;;;;;;;11.41;85.64;102459.06;4979055;28;20054;-71
2023/06/01 04:56:08;;;;;;;10.70;6.50;;;;;;;11.39;85.47;102459.97;4990244;28;20392;-71
2023/06/01 04:58:34;;;;;;;10.45;6.85;;;;;;;11.35;85.40;102461.81;4977937;28;20065;-71
2023/06/01 05:01:00;;;;;;;9.15;6.50;;;;;;;11.29;85.55;102464.53;4985438;28;20057;-71
2023/06/01 05:03:25;;;;;;;12.45;6.22;;;;;;;11.23;86.33;102459.41;4978031;28;20038;-71
2023/06/01 05:05:50;;;;;;;10.93;6.97;;;;;;;11.20;86.37;102460.28;4983142;28;20041;-71
2023/06/01 05:08:16;;;;;;;9.98;6.25;;;;;;;11.19;86.23;102469.06;4991454;28;20097;-71
2023/06/01 05:10:41;;;;;;;12.25;7.00;;;;;;;11.17;86.09;102463.00;4983016;28;20046;-71
2023/06/01 05:13:07;;;;;;;7.88;5.75;;;;;;;11.17;85.58;102465.63;4990789;28;20281;-71
2023/06/01 05:15:32;;;;;;;12.20;6.25;;;;;;;11.14;85.97;102466.50;4996971;28;20354;-71
2023/06/01 05:17:57;;;;;;;11.02;7.10;;;;;;;11.04;86.75;102459.72;4996314;28;20402;-71
2023/06/01 05:20:23;;;;;;;13.32;7.30;;;;;;;11.07;86.52;102464.88;4997008;28;20041;-71
2023/06/01 05:22:48;;;;;;;12.90;6.50;;;;;;;11.15;86.12;102467.38;4995819;28;20066;-71
2023/06/01 05:25:14;;;;;;;10.35;6.55;;;;;;;11.11;85.91;102466.59;4998733;28;20034;-71
2023/06/01 05:27:39;;;;;;;12.07;6.43;;;;;;;11.14;85.84;102461.28;4992976;28;20242;-71
2023/06/01 05:30:06;;;;;;;10.60;6.10;;;;;;;11.16;85.95;102458.63;4981874;28;20042;-71
2023/06/01 05:32:32;;;;;;;18.15;7.85;;;;;;;11.17;85.66;102463.00;4988813;28;20033;-71
2023/06/01 05:34:57;;;;;;;11.38;5.80;;;;;;;11.23;85.72;102462.88;5001393;28;20049;-71
2023/06/01 05:37:22;;;;;;;10.32;6.63;;;;;;;11.26;85.55;102464.56;4995307;28;20102;-71
2023/06/01 05:39:48;;;;;;;8.50;5.80;;;;;;;11.26;85.51;102460.22;4980607;28;20085;-71
2023/06/01 05:42:13;;;;;;;15.73;6.55;;;;;;;11.31;84.97;102465.34;4994838;28;20363;-71
2023/06/01 05:44:39;;;;;;;8.93;6.90;;;;;;;11.29;85.22;102467.16;4981058;28;20089;-71
2023/06/01 05:47:04;;;;;;;9.10;6.05;;;;;;;11.30;85.31;102468.88;4994461;28;20364;-71
2023/06/01 05:49:31;;;;;;;13.73;7.03;;;;;;;11.30;85.31;102467.13;4981238;28;20034;-71
2023/06/01 05:51:57;;;;;;;10.73;5.53;;;;;;;11.33;85.42;102461.84;4994511;28;20080;-71
2023/06/01 05:54:22;;;;;;;7.43;6.30;;;;;;;11.40;85.01;102459.94;5000552;28;20042;-71
2023/06/01 05:56:47;;;;;;;14.93;6.43;;;;;;;11.46;85.27;102466.84;5000635;28;20042;-71
2023/06/01 05:59:13;;;;;;;12.93;6.40;;;;;;;11.52;85.37;102466.75;4982110;28;20046;-71
2023/06/01 06:01:38;;;;;;;15.65;6.60;;;;;;;11.57;85.15;102475.41;4975011;28;20042;-71
2023/06/01 06:04:04;;;;;;;14.15;6.57;;;;;;;11.63;84.98;102472.63;4983796;28;20031;-71
2023/06/01 06:06:30;;;;;;;10.50;5.90;;;;;;;11.64;84.50;102466.50;4982090;28;20043;-71
2023/06/01 06:08:55;;;;;;;14.48;7.53;;;;;;;11.60;84.19;102466.59;4980122;28;20035;-71
2023/06/01 06:11:25;;;;;;;15.15;7.30;;;;;;;11.64;84.10;102463.88;4996198;28;20065;-71
2023/06/01 06:13:51;;;;;;;11.52;6.35;;;;;;;11.68;84.22;102465.53;4985649;28;20258;-71
2023/06/01 06:16:16;;;;;;;13.25;6.35;;;;;;;11.67;84.10;102469.06;4991370;28;20153;-71
2023/06/01 06:18:41;;;;;;;12.80;7.22;;;;;;;11.64;84.12;102466.50;4992397;28;20065;-71
2023/06/01 06:21:07;;;;;;;9.95;6.47;;;;;;;11.69;84.34;102467.25;4998262;28;20085;-71
2023/06/01 06:23:32;;;;;;;15.73;6.93;;;;;;;11.71;84.50;102457.63;4999160;28;20033;-71
2023/06/01 06:25:58;;;;;;;11.10;6.53;;;;;;;11.76;83.78;102454.03;4999793;28;20321;-71
2023/06/01 06:28:23;;;;;;;12.10;6.75;;;;;;;11.78;83.70;102452.25;4998776;28;20423;-71
2023/06/01 06:30:49;;;;;;;13.25;7.07;;;;;;;11.77;83.62;102454.00;4998850;28;20057;-71
2023/06/01 06:33:14;;;;;;;15.63;7.85;;;;;;;11.79;84.18;102453.94;4993938;28;20051;-71
2023/06/01 06:35:41;;;;;;;13.68;7.00;;;;;;;11.79;83.63;102459.19;4993232;28;20220;-71
2023/06/01 06:38:07;;;;;;;15.73;7.60;;;;;;;11.81;84.08;102453.03;4992919;28;20065;-71
2023/06/01 06:40:32;;;;;;;10.90;7.25;;;;;;;11.86;83.75;102453.81;4992093;28;20070;-71
2023/06/01 06:42:57;;;;;;;16.33;7.40;;;;;;;11.94;84.04;102458.09;4994928;28;20038;-71
2023/06/01 06:45:23;;;;;;;12.13;7.15;;;;;;;12.02;84.29;102456.16;4996979;28;20356;-71
2023/06/01 06:47:48;;;;;;;15.27;7.78;;;;;;;12.14;82.71;102462.91;4995405;28;20235;-71
2023/06/01 06:50:14;;;;;;;8.95;7.03;;;;;;;12.17;82.69;102462.84;4998413;28;20260;-71
2023/06/01 06:52:39;;;;;;;11.10;7.35;;;;;;;12.19;82.42;102464.53;4997037;28;20076;-71
2023/06/01 06:55:06;;;;;;;15.02;7.30;;;;;;;12.11;82.07;102466.47;4984686;28;20045;-71
2023/06/01 06:57:33;;;;;;;13.52;6.97;;;;;;;12.16;82.51;102469.00;4996279;28;20046;-71
2023/06/01 06:59:59;;;;;;;13.35;7.90;;;;;;;12.15;82.27;102480.38;4988887;28;20337;-71
2023/06/01 07:02:25;;;;;;;16.50;8.65;;;;;;;12.12;81.60;102476.09;4981177;28;20102;-71
2023/06/01 07:04:51;;;;;;;13.30;7.97;;;;;;;12.16;82.26;102480.38;4991338;28;20412;-70
2023/06/01 07:07:17;;;;;;;12.35;8.27;;;;;;;12.19;81.99;102480.31;4995947;28;20029;-71
2023/06/01 07:09:42;;;;;;;17.48;8.23;;;;;;;12.21;82.71;102475.03;4993795;28;20033;-71
2023/06/01 07:12:08;;;;;;;15.35;8.25;;;;;;;12.26;82.11;102479.28;4994556;28;20042;-71
2023/06/01 07:14:33;;;;;;;13.82;7.60;;;;;;;12.27;82.82;102465.22;4996166;28;20043;-71
2023/06/01 07:16:59;;;;;;;11.75;8.15;;;;;;;12.28;82.98;102471.38;4993239;28;20117;-71
2023/06/01 07:19:25;;;;;;;18.77;8.82;;;;;;;12.32;82.46;102477.44;4991353;28;20069;-71
2023/06/01 07:21:50;;;;;;;23.45;7.88;;;;;;;12.31;83.02;102473.06;4994764;28;20274;-71
2023/06/01 07:24:19;;;;;;;10.35;7.47;;;;;;;12.39;83.15;102465.88;4997544;28;20050;-71
2023/06/01 07:26:44;;;;;;;13.32;7.65;;;;;;;12.42;82.67;102466.66;4988122;28;20319;-71
2023/06/01 07:29:11;;;;;;;10.00;7.82;;;;;;;12.46;82.64;102481.47;4981512;28;20034;-71
2023/06/01 07:31:38;;;;;;;12.48;8.05;;;;;;;12.42;82.38;102468.41;4995953;28;20073;-71
2023/06/01 07:34:04;;;;;;;15.40;8.73;;;;;;;12.49;82.67;102476.13;4994415;28;20395;-71
2023/06/01 07:36:33;;;;;;;9.88;7.13;;;;;;;12.55;82.51;102476.88;4998396;28;20046;-70
2023/06/01 07:38:58;;;;;;;17.02;7.95;;;;;;;12.60;81.30;102478.50;4997040;28;20057;-70
2023/06/01 07:41:24;;;;;;;15.80;7.45;;;;;;;12.58;80.50;102472.44;4997185;28;20042;-71
2023/06/01 07:43:49;;;;;;;16.70;7.28;;;;;;;12.64;80.21;102472.31;4997448;28;20038;-71
2023/06/01 07:46:15;;;;;;;16.63;6.68;;;;;;;12.79;80.43;102481.59;4998524;28;20266;-71
2023/06/01 07:48:40;;;;;;;11.32;6.53;;;;;;;12.90;79.25;102475.19;4997793;28;20104;-70
2023/06/01 07:51:06;;;;;;;12.23;6.25;;;;;;;12.94;78.92;102484.75;4997167;28;20345;-71
2023/06/01 07:53:32;;;;;;;12.32;7.10;;;;;;;12.95;78.58;102481.19;4997300;28;20118;-71
2023/06/01 07:55:57;;;;;;;14.15;7.45;;;;;;;13.01;78.21;102487.19;4993441;28;20066;-71
2023/06/01 07:58:23;;;;;;;10.30;6.40;;;;;;;13.03;78.13;102481.91;4997336;28;20405;-71
2023/06/01 08:00:49;;;;;;;10.02;6.78;;;;;;;13.09;78.20;102481.72;4999374;28;20038;-71
2023/06/01 08:03:14;;;;;;;11.80;7.30;;;;;;;13.10;77.62;102482.59;4998973;28;20037;-71
2023/06/01 08:05:42;;;;;;;10.90;6.47;;;;;;;13.15;77.70;102485.97;4997007;28;20042;-71
2023/06/01 08:08:08;;;;;;;18.15;6.70;;;;;;;13.15;77.87;102473.69;4996361;28;20033;-71
2023/06/01 08:10:34;;;;;;;14.50;6.68;;;;;;;13.19;77.75;102470.09;4997578;28;20034;-71
2023/06/01 08:13:00;;;;;;;9.52;6.30;;;;;;;13.27;78.07;102476.91;4984521;28;20351;-71
2023/06/01 08:15:28;;;;;;;12.82;6.15;;;;;;;13.28;77.85;102466.34;4984796;28;20414;-71
2023/06/01 08:17:54;;;;;;;8.18;6.00;;;;;;;13.32;76.99;102469.81;4985440;28;20045;-71
2023/06/01 08:20:25;;;;;;;12.88;5.80;;;;;;;13.23;76.18;102470.88;4977188;28;20045;-71
2023/06/01 08:22:51;;;;;;;11.20;5.75;;;;;;;13.35;76.75;102469.69;4979626;28;20047;-71
2023/06/01 08:25:17;;;;;;;12.90;5.85;;;;;;;13.41;76.60;102472.19;4978557;28;20081;-71
2023/06/01 08:27:43;;;;;;;11.68;6.47;;;;;;;13.48;75.41;102470.25;4979169;28;20389;-71
2023/06/01 08:30:09;;;;;;;10.68;5.65;;;;;;;13.45;75.58;102473.81;4976751;28;20113;-71
2023/06/01 08:32:35;;;;;;;7.15;5.45;;;;;;;13.42;75.25;102469.53;4979997;28;20050;-71
2023/06/01 08:35:00;;;;;;;8.45;5.55;;;;;;;13.43;75.66;102465.97;4978022;28;20034;-71
2023/06/01 08:37:26;;;;;;;8.60;5.82;;;;;;;13.46;75.73;102469.41;4985891;28;20100;-71
2023/06/01 08:39:51;;;;;;;10.27;5.95;;;;;;;13.46;75.07;102472.06;4996586;28;20113;-71
2023/06/01 08:42:31;;;;;;;10.70;6.35;;;;;;;13.41;74.75;102473.03;4982756;28;20035;-71
2023/06/01 08:44:58;;;;;;;8.23;5.53;;;;;;;13.40;74.54;102471.31;4978830;28;20185;-71
2023/06/01 08:47:26;;;;;;;10.85;5.70;;;;;;;13.41;74.34;102475.69;4983851;28;20806;-71
2023/06/01 08:49:52;;;;;;;7.22;5.78;;;;;;;13.42;74.88;102476.53;5000087;28;20345;-71
2023/06/01 08:52:24;;;;;;;9.45;6.22;;;;;;;13.56;74.93;102473.53;4995852;28;20030;-71
2023/06/01 08:54:50;;;;;;;8.52;5.88;;;;;;;13.65;74.48;102464.53;4993968;28;20050;-71
2023/06/01 08:57:15;;;;;;;13.68;5.53;;;;;;;13.73;74.45;102465.16;4983930;28;20380;-71
2023/06/01 08:59:41;;;;;;;8.52;5.97;;;;;;;13.74;73.59;102464.28;4994961;28;20042;-71
2023/06/01 09:02:07;;;;;;;12.95;6.03;;;;;;;13.79;73.43;102451.84;5000985;28;20037;-71
2023/06/01 09:04:35;;;;;;;8.68;5.78;;;;;;;13.80;73.18;102448.28;5003587;28;20038;-71
2023/06/01 09:07:02;;;;;;;10.48;5.97;;;;;;;13.87;73.23;102463.00;4999893;28;20034;-71
2023/06/01 09:09:27;;;;;;;9.15;5.50;;;;;;;13.90;72.36;102462.94;4984721;28;20045;-71
2023/06/01 09:12:40;;;;;;;12.68;5.80;;;;;;;13.93;71.73;102460.19;4992326;28;20069;-71
2023/06/01 09:15:12;;;;;;;10.82;5.57;;;;;;;13.99;72.49;102449.50;4993172;28;20069;-71
2023/06/01 09:17:39;;;;;;;11.10;5.95;;;;;;;14.06;72.73;102451.94;5000741;28;20360;-71
2023/06/01 09:20:10;;;;;;;8.73;6.28;;;;;;;14.11;72.47;102444.75;4985556;28;20711;-71
2023/06/01 09:22:43;;;;;;;13.35;6.97;;;;;;;14.15;72.69;102438.47;5001976;28;20038;-71
2023/06/01 09:25:10;;;;;;;10.60;6.15;;;;;;;14.23;73.03;102441.75;5001074;28;20241;-71
2023/06/01 09:28:02;;;;;;;9.10;6.32;;;;;;;14.26;71.54;102438.16;5001312;28;20042;-71
2023/06/01 09:30:44;;;;;;;9.98;6.25;;;;;;;14.31;71.55;102437.09;4998876;28;20057;-71
2023/06/01 09:33:14;;;;;;;10.35;6.50;;;;;;;14.33;71.40;102443.19;5002849;28;20042;-71
2023/06/01 09:35:41;;;;;;;8.52;6.10;;;;;;;14.37;72.29;102434.31;5003067;28;20026;-71
2023/06/01 09:38:06;;;;;;;8.65;6.25;;;;;;;14.43;72.00;102437.66;5000985;28;20149;-71
2023/06/01 09:40:34;;;;;;;7.28;5.68;;;;;;;14.52;71.57;102434.72;4986160;28;20045;-71
2023/06/01 09:43:02;;;;;;;14.25;6.30;;;;;;;14.54;71.46;102425.84;4994131;28;20221;-71
2023/06/01 09:45:27;;;;;;;9.98;5.93;;;;;;;14.63;72.02;102432.63;4994378;28;20273;-71
2023/06/01 09:47:53;;;;;;;9.15;6.07;;;;;;;14.70;71.46;102434.16;5000551;28;20038;-71
2023/06/01 09:50:38;;;;;;;8.68;6.20;;;;;;;14.74;70.72;102438.41;4988153;28;20061;-71
2023/06/01 09:53:06;;;;;;;9.65;5.53;;;;;;;14.80;70.43;102431.22;5000246;28;20304;-71
2023/06/01 09:55:32;;;;;;;8.30;6.03;;;;;;;14.84;70.03;102430.19;4997118;28;20030;-72
2023/06/01 09:58:19;;;;;;;12.77;6.25;;;;;;;14.86;69.55;102429.25;4997776;28;20112;-71
2023/06/01 10:00:46;;;;;;;9.02;6.40;;;;;;;14.86;68.81;102436.28;5000130;28;20042;-71
2023/06/01 10:03:13;;;;;;;9.63;6.03;;;;;;;14.91;69.94;102429.06;5002076;28;20061;-71
2023/06/01 10:05:39;;;;;;;10.18;6.00;;;;;;;14.90;67.83;102430.00;4982530;28;20061;-71
2023/06/01 10:08:05;;;;;;;11.10;6.45;;;;;;;14.88;68.21;102423.91;5003321;28;20042;-71
2023/06/01 10:10:32;;;;;;;12.88;6.07;;;;;;;14.95;69.07;102422.78;4994785;28;20058;-71
2023/06/01 10:12:58;;;;;;;9.70;6.13;;;;;;;14.96;68.15;102427.16;4995136;28;20038;-71
2023/06/01 10:15:23;;;;;;;13.15;5.47;;;;;;;15.02;68.70;102424.28;4995054;28;20057;-71
2023/06/01 10:17:49;;;;;;;8.82;5.85;;;;;;;15.07;68.96;102422.38;4997931;28;20042;-71
2023/06/01 10:20:15;;;;;;;10.27;6.07;;;;;;;15.10;68.74;102419.63;4995915;28;20030;-71
2023/06/01 10:22:42;;;;;;;7.00;5.63;;;;;;;15.16;67.92;102421.19;4995975;28;20355;-71
2023/06/01 10:25:11;;;;;;;7.35;5.45;;;;;;;15.22;67.93;102425.41;4997346;28;20058;-71
2023/06/01 10:27:45;;;;;;;7.82;4.97;;;;;;;15.20;66.58;102416.66;4997710;28;20066;-71
2023/06/01 10:30:11;;;;;;;15.63;5.07;;;;;;;15.29;68.03;102414.56;4997144;28;20258;-71
2023/06/01 10:32:36;;;;;;;11.80;5.47;;;;;;;15.26;65.97;102421.72;4998779;28;20123;-71
2023/06/01 10:35:05;;;;;;;6.97;4.75;;;;;;;15.26;66.62;102416.44;4999407;28;20037;-71
2023/06/01 10:37:31;;;;;;;7.45;4.78;;;;;;;15.34;67.47;102412.63;4999624;28;20046;-71
2023/06/01 10:40:14;;;;;;;10.10;4.85;;;;;;;15.44;67.14;102414.94;4996378;28;20054;-71
2023/06/01 10:42:40;;;;;;;9.13;5.50;;;;;;;15.45;66.86;102414.88;4997894;28;20267;-71
2023/06/01 10:45:06;;;;;;;14.05;5.45;;;;;;;15.46;67.24;102408.69;4995556;28;20376;-71
2023/06/01 10:47:34;;;;;;;7.15;5.22;;;;;;;15.56;67.45;102406.56;4997267;28;20207;-71
2023/06/01 10:50:00;;;;;;;7.60;5.18;;;;;;;15.59;67.78;102406.47;4997809;28;20090;-71
2023/06/01 10:52:33;;;;;;;8.32;5.55;;;;;;;15.68;68.03;102411.41;4998805;28;20261;-71
2023/06/01 10:55:11;;;;;;;8.15;4.88;;;;;;;15.71;66.06;102406.00;4986251;28;20049;-71
2023/06/01 10:57:46;;;;;;;8.93;5.28;;;;;;;15.70;65.77;102416.63;4997778;28;20053;-71
2023/06/01 11:00:18;;;;;;;8.98;5.20;;;;;;;15.70;64.97;102408.72;4996416;28;20226;-71
2023/06/01 11:03:00;;;;;;;7.32;4.80;;;;;;;15.72;65.17;102405.09;4998219;28;20068;-71
2023/06/01 11:05:39;;;;;;;7.15;4.85;;;;;;;15.72;64.24;102407.72;4996897;28;20497;-71
2023/06/01 11:08:28;;;;;;;6.20;4.57;;;;;;;15.71;64.48;102398.06;4976901;28;20080;-71
2023/06/01 11:11:02;;;;;;;10.27;5.03;;;;;;;15.69;63.49;102396.41;4988211;28;20046;-71
2023/06/01 11:13:30;;;;;;;5.03;4.50;;;;;;;15.70;63.97;102396.34;4994096;28;20038;-71
2023/06/01 11:16:09;;;;;;;9.15;5.15;;;;;;;15.73;64.04;102392.72;4996263;28;20070;-71
2023/06/01 11:18:41;;;;;;;8.48;5.03;;;;;;;15.77;64.76;102383.81;4996656;28;20050;-71
2023/06/01 11:21:35;;;;;;;7.20;4.38;;;;;;;15.75;63.09;102388.28;4996589;28;20088;-71
2023/06/01 11:24:05;;;;;;;10.35;4.97;;;;;;;15.79;64.51;102397.84;4991446;28;20054;-71
2023/06/01 11:26:35;;;;;;;10.93;5.00;;;;;;;15.86;65.76;102386.13;4996561;28;20311;-71